Latest Weather Observations for Lord Howe Island

IDN60801

Issued at 3:32 pm EDT Saturday 3 December 2016 (issued every 30 minutes, with the page automatically refreshed every 10 minutes)

About weather observations | Map of weather stations | Latest weather observations for NSW | Other Formats
Station Details ID: 200839 Name: LORD HOWE ISLAND AERO Lat: -31.54 Lon: 159.08 Height: 5.0 m
Data from the previous 72 hours. | See also: Recent months at Lord Howe Island
Date/Time
EDT
Temp
°C
App
Temp
°C
Dew
Point
°C
Rel
Hum
%
Delta-T
°C
Wind Press
QNH
hPa
Press
MSL
hPa
Rain since
9am
mm
Dir  Spd
km/h
Gust
km/h
Spd
kts
Gust
kts
03/03:30pm 24.6 25.8 19.8 74 3.1 NNW 13 24 7 13 1016.9 - 0.0
03/03:00pm 24.7 24.8 19.9 74 3.1 N 19 33 10 18 1017.0 1017.0 0.0
03/02:30pm 24.4 24.2 19.7 75 3.0 N 20 32 11 17 1017.0 - 0.0
03/02:00pm 24.5 24.3 19.7 74 3.1 N 20 30 11 16 1017.0 - 0.0
03/01:30pm 24.3 24.2 19.5 74 3.1 NNW 19 28 10 15 1017.1 - 0.0
03/01:00pm 24.5 24.8 19.5 73 3.2 NNW 17 24 9 13 1017.2 - 0.0
03/12:30pm 24.7 25.0 19.7 73 3.2 N 17 28 9 15 1017.4 - 0.0
03/12:27pm 24.3 24.6 19.5 74 3.1 N 17 28 9 15 1017.4 - 0.0
03/12:00pm 23.9 23.5 19.4 76 2.9 N 20 30 11 16 1017.7 1017.7 0.0
03/11:57am 24.0 23.8 19.3 75 3.0 N 19 30 10 16 1017.7 - 0.0
03/11:30am 25.4 25.5 20.0 72 3.5 NNE 19 30 10 16 1017.3 - 0.0
03/11:10am 25.0 25.1 19.9 73 3.3 NNE 19 30 10 16 1017.5 - 0.0
03/11:00am 24.9 24.9 19.8 73 3.3 NNE 19 28 10 15 1017.6 - 0.0
03/10:30am 24.3 23.7 19.8 76 2.9 NE 22 28 12 15 1017.7 - 0.0
03/10:17am 24.3 23.6 19.6 75 3.0 NNE 22 28 12 15 1017.6 - 0.0
03/10:00am 24.6 24.6 20.1 76 2.9 NNE 20 26 11 14 1017.7 - 0.0
03/09:32am 24.5 24.3 19.7 74 3.1 NNE 20 24 11 13 1017.6 - 0.0
03/09:30am 24.8 25.0 20.2 75 3.0 NNE 19 22 10 12 1017.6 - 0.0
03/09:15am 24.6 26.0 19.6 73 3.2 N 11 22 6 12 1017.6 - 0.0
03/09:00am 23.9 24.5 19.4 76 2.9 N 15 24 8 13 1017.6 1017.6 0.0
03/08:30am 23.4 24.1 18.8 75 2.9 N 13 19 7 10 1017.5 - 0.0
03/08:13am 23.5 24.2 18.9 75 2.9 NNW 13 17 7 9 1017.5 - 0.0
03/08:00am 23.5 25.1 19.1 76 2.8 N 9 17 5 9 1017.4 - 0.0
03/07:48am 23.7 24.9 19.1 75 2.9 N 11 17 6 9 1017.3 - 0.0
03/07:30am 22.5 23.8 18.5 78 2.5 N 9 24 5 13 1017.2 - 0.0
03/07:23am 23.0 24.6 19.1 78 2.5 N 9 20 5 11 1017.2 - 0.0
03/07:00am 22.5 24.0 19.0 80 2.2 N 9 17 5 9 1017.1 - 0.0
03/06:33am 22.2 24.2 19.2 83 1.9 NE 7 11 4 6 1016.7 - 0.0
03/06:30am 22.0 24.1 19.3 85 1.7 NNE 7 11 4 6 1016.7 - 0.0
03/06:27am 21.9 23.8 19.0 83 1.8 N 7 17 4 9 1016.7 - 0.0
03/06:00am 21.6 24.4 18.9 84 1.7 N 2 7 1 4 1016.7 1016.7 0.0
03/05:45am 21.1 23.5 18.7 86 1.5 NE 4 11 2 6 1016.4 - 0.0
03/05:30am 21.1 23.0 18.5 85 1.6 NNE 6 11 3 6 1016.3 - 0.0
03/05:00am 21.2 22.6 18.6 85 1.6 N 9 19 5 10 1015.7 - 0.0
03/04:30am 21.2 22.2 18.6 85 1.6 N 11 19 6 10 1015.6 - 0.0
03/04:00am 21.0 22.5 18.8 87 1.4 N 9 17 5 9 1015.5 - 0.0
03/03:30am 20.9 22.3 18.7 87 1.4 N 9 13 5 7 1015.8 - 0.0
03/03:00am 21.2 22.5 18.5 84 1.7 N 9 15 5 8 1015.9 1015.9 0.0
03/02:30am 21.2 22.5 18.5 84 1.7 NNE 9 17 5 9 1016.1 - 0.0
03/02:00am 21.5 22.4 18.5 83 1.9 N 11 20 6 11 1016.3 - 0.0
03/01:30am 21.3 21.9 18.6 84 1.7 N 13 17 7 9 1016.7 - 0.0
03/01:00am 21.5 22.1 18.6 83 1.8 N 13 22 7 12 1016.8 - 0.0
03/12:30am 21.4 22.0 18.7 84 1.7 NNE 13 26 7 14 1016.9 - 0.0
03/12:00am 21.4 21.8 18.9 86 1.6 NNE 15 24 8 13 1017.0 1017.0 0.0
 
Date/Time
EDT
Temp
°C
App
Temp
°C
Dew
Point
°C
Rel
Hum
%
Delta-T
°C
Wind Press
QNH
hPa
Press
MSL
hPa
Rain since
9am
mm
Dir  Spd
km/h
Gust
km/h
Spd
kts
Gust
kts
02/11:30pm 21.5 22.2 18.8 84 1.7 NNE 13 24 7 13 1016.9 - 0.0
02/11:00pm 21.6 22.2 18.7 83 1.8 N 13 22 7 12 1017.3 - 0.0
02/10:30pm 21.6 22.2 18.7 83 1.8 N 13 22 7 12 1017.3 - 0.0
02/10:00pm 21.6 22.7 18.9 84 1.7 N 11 20 6 11 1017.2 - 0.0
02/09:30pm 21.6 22.7 18.9 84 1.7 NNE 11 24 6 13 1016.9 - 0.0
02/09:00pm 21.5 22.3 19.0 86 1.6 NNE 13 22 7 12 1016.7 1016.7 0.0
02/08:30pm 21.6 22.6 18.7 83 1.8 NNE 11 17 6 9 1016.6 - 0.0
02/08:00pm 21.6 22.2 18.6 83 1.9 NNE 13 20 7 11 1016.1 - 0.0
02/07:30pm 21.7 21.9 18.5 82 2.0 NNE 15 19 8 10 1015.8 - 0.0
02/07:00pm 21.9 22.2 18.0 78 2.4 NNE 13 17 7 9 1015.6 - 0.0
02/06:30pm 22.3 22.3 18.1 77 2.6 NNE 15 19 8 10 1015.2 - 0.0
02/06:00pm 22.7 22.7 18.2 76 2.8 NNE 15 22 8 12 1015.1 1015.1 0.0
02/05:30pm 22.9 22.1 18.1 74 3.0 NNE 19 24 10 13 1014.8 - 0.0
02/05:00pm 23.2 22.7 18.6 75 2.9 NNE 19 24 10 13 1014.6 - 0.0
02/04:30pm 23.7 22.9 18.5 72 3.3 NNE 20 28 11 15 1014.6 - 0.0
02/04:00pm 24.3 24.8 18.4 69 3.7 N 13 22 7 12 1014.9 - 0.0
02/03:30pm 24.3 24.8 18.3 69 3.8 N 13 24 7 13 1015.0 - 0.0
02/03:00pm 23.8 23.0 18.4 72 3.4 NNE 20 24 11 13 1014.9 1014.9 0.0
02/02:30pm 24.3 23.4 18.3 69 3.8 NNE 20 28 11 15 1015.2 - 0.0
02/02:00pm 24.1 22.8 18.2 69 3.7 NNE 22 28 12 15 1015.1 - 0.0
02/01:30pm 23.9 22.4 17.8 68 3.8 NNE 22 26 12 14 1015.2 - 0.0
02/01:00pm 23.8 22.6 17.5 68 3.9 NNE 20 24 11 13 1015.2 - 0.0
02/12:30pm 23.9 22.4 17.6 68 3.9 NNE 22 26 12 14 1015.4 - 0.0
02/12:00pm 23.7 22.5 17.4 68 3.9 NNE 20 28 11 15 1015.6 1015.6 0.0
02/11:30am 23.8 22.6 17.5 68 3.9 NNE 20 30 11 16 1015.8 - 0.0
02/11:00am 24.0 22.9 17.7 68 3.9 NNE 20 28 11 15 1015.8 - 0.0
02/10:30am 23.6 22.4 17.5 68 3.8 NNE 20 24 11 13 1015.6 - 0.0
02/10:00am 23.6 22.4 17.5 68 3.8 NNE 20 28 11 15 1015.4 - 0.0
02/09:30am 23.9 22.7 17.6 68 3.9 NNE 20 28 11 15 1015.4 - 0.0
02/09:00am 23.3 22.5 17.1 68 3.8 NNE 17 28 9 15 1015.4 1015.4 0.0
02/08:30am 23.5 23.7 17.7 70 3.6 NNE 13 22 7 12 1015.3 - 0.0
02/08:00am 23.0 22.0 17.5 71 3.4 NE 19 26 10 14 1015.1 - 0.0
02/07:30am 22.4 22.6 16.7 70 3.5 N 11 19 6 10 1015.1 - 0.0
02/07:00am 22.8 23.4 17.6 72 3.2 NNE 11 19 6 10 1014.9 - 0.0
02/06:30am 21.8 22.8 16.9 73 3.0 N 7 11 4 6 1014.6 - 0.0
02/06:00am 21.1 22.7 16.8 76 2.6 NW 4 9 2 5 1014.7 1014.7 0.0
02/05:30am 20.4 21.4 16.8 80 2.2 N 7 11 4 6 1014.7 - 0.0
02/05:00am 20.4 21.4 16.8 80 2.2 N 7 11 4 6 1014.4 - 0.0
02/04:30am 20.0 21.3 17.0 83 1.8 N 6 9 3 5 1014.1 - 0.0
02/04:00am 20.4 21.4 16.8 80 2.2 N 7 11 4 6 1013.9 - 0.0
02/03:30am 20.8 20.7 16.9 78 2.4 N 13 17 7 9 1013.8 - 0.0
02/03:00am 20.9 21.0 16.6 76 2.6 N 11 15 6 8 1013.6 1013.6 0.0
02/02:30am 20.9 21.0 16.6 76 2.6 NNE 11 22 6 12 1013.5 - 0.0
02/02:00am 21.0 21.5 16.5 75 2.7 N 9 20 5 11 1013.7 - 0.0
02/01:30am 20.8 20.7 17.0 79 2.3 NE 13 22 7 12 1013.7 - 0.0
02/01:00am 20.9 21.6 17.0 78 2.4 NNE 9 15 5 8 1013.9 - 0.0
02/12:30am 21.1 20.7 17.2 78 2.4 NNE 15 20 8 11 1014.1 - 0.0
02/12:00am 21.0 20.7 17.4 80 2.2 NE 15 20 8 11 1014.1 1014.1 0.0
 
Date/Time
EDT
Temp
°C
App
Temp
°C
Dew
Point
°C
Rel
Hum
%
Delta-T
°C
Wind Press
QNH
hPa
Press
MSL
hPa
Rain since
9am
mm
Dir  Spd
km/h
Gust
km/h
Spd
kts
Gust
kts
01/11:30pm 21.1 20.9 17.7 81 2.1 NNE 15 19 8 10 1014.2 - 0.0
01/11:00pm 21.0 20.7 17.4 80 2.2 NNE 15 19 8 10 1014.4 - 0.0
01/10:30pm 21.0 20.8 17.6 81 2.1 NE 15 20 8 11 1014.3 - 0.0
01/10:00pm 21.1 21.0 17.0 77 2.5 NNE 13 17 7 9 1014.6 - 0.0
01/09:30pm 21.0 21.3 17.1 78 2.4 NNE 11 15 6 8 1014.6 - 0.0
01/09:00pm 21.1 21.3 16.8 76 2.6 NNE 11 15 6 8 1014.4 1014.4 0.0
01/08:30pm 21.4 21.4 17.3 77 2.5 NNE 13 19 7 10 1014.0 - 0.0
01/08:00pm 21.1 21.7 17.7 81 2.1 NE 11 15 6 8 1013.7 - 0.0
01/07:30pm 21.3 22.0 17.9 81 2.1 NNE 11 17 6 9 1013.5 - 0.0
01/07:00pm 21.7 22.4 18.0 79 2.3 N 11 15 6 8 1013.5 - 0.0
01/06:30pm 22.4 23.2 18.1 76 2.7 N 11 19 6 10 1013.3 - 0.0
01/06:00pm 23.1 24.0 18.3 74 3.0 N 11 19 6 10 1013.0 1013.0 0.0
01/05:30pm 24.0 24.6 17.6 67 4.0 NW 11 17 6 9 1013.0 - 0.0
01/05:00pm 23.6 24.2 17.7 69 3.7 WNW 11 17 6 9 1013.0 - 0.0
01/04:30pm 23.8 23.8 17.2 66 4.1 WNW 13 19 7 10 1013.0 - 0.0
01/04:00pm 24.8 24.7 17.8 65 4.4 W 15 20 8 11 1013.0 - 0.0
01/03:51pm 24.6 24.8 17.7 65 4.3 WNW 13 19 7 10 1013.0 - 0.0
01/03:30pm 25.0 25.3 17.8 64 4.5 W 13 19 7 10 1013.2 - 0.0
01/03:00pm 25.1 26.2 18.8 68 4.0 WNW 11 20 6 11 1013.3 1013.3 0.0
01/02:30pm 23.4 23.7 17.8 71 3.5 N 13 22 7 12 1013.5 - 0.0
01/02:00pm 23.7 24.0 17.9 70 3.6 NNW 13 20 7 11 1013.6 - 0.0
01/01:30pm 23.0 23.3 17.9 73 3.2 NNW 13 20 7 11 1013.5 - 0.0
01/01:00pm 23.1 24.0 17.6 71 3.4 N 9 17 5 9 1013.5 - 0.0
01/12:30pm 22.8 22.8 17.3 71 3.4 W 13 19 7 10 1013.6 - 0.0
01/12:00pm 23.0 23.6 17.7 72 3.3 WNW 11 17 6 9 1013.7 1013.7 0.0
01/11:30am 23.4 23.7 17.8 71 3.5 W 13 19 7 10 1013.6 - 0.0
01/11:00am 22.8 23.8 17.8 73 3.1 W 9 13 5 7 1013.6 - 0.0
01/10:30am 22.8 23.3 17.5 72 3.3 W 11 17 6 9 1013.6 - 0.0
01/10:00am 23.7 24.0 17.9 70 3.6 WNW 13 22 7 12 1013.5 - 0.0
01/09:30am 23.0 23.6 17.7 72 3.3 WNW 11 20 6 11 1013.4 - 0.0
01/09:00am 23.2 23.8 17.7 71 3.4 N 11 19 6 10 1013.4 1013.4 0.0
01/08:30am 23.3 24.2 18.4 74 3.1 N 11 15 6 8 1013.2 - 0.0
01/08:00am 22.3 23.2 17.6 75 2.9 WNW 9 13 5 7 1013.3 - 0.0
01/07:30am 22.5 24.2 18.0 75 2.8 NNW 6 13 3 7 1013.2 - 0.0
01/07:00am 21.7 23.4 18.0 79 2.3 NW 6 9 3 5 1013.1 - 0.0
01/06:30am 20.4 23.3 18.1 87 1.4 CALM 0 0 0 0 1013.1 - 0.0
01/06:00am 18.5 21.0 17.2 92 0.8 CALM 0 0 0 0 1013.1 1013.1 0.0
01/05:30am 17.9 20.1 16.6 92 0.8 CALM 0 0 0 0 1013.1 - 0.0
01/05:00am 17.7 19.9 16.5 93 0.7 CALM 0 0 0 0 1012.8 - 0.0
01/04:30am 17.5 19.5 16.0 91 0.9 CALM 0 0 0 0 1012.6 - 0.0
01/04:00am 19.2 20.3 16.7 85 1.5 N 6 11 3 6 1012.4 - 0.0
01/03:30am 20.2 21.3 17.1 82 1.9 N 7 11 4 6 1012.4 - 0.0
01/03:00am 19.9 20.5 16.9 83 1.8 N 9 13 5 7 1012.6 1012.6 0.0
01/02:30am 17.5 18.1 15.8 90 1.0 N 7 11 4 6 1012.5 - 0.0
01/02:00am 17.2 19.2 16.0 93 0.7 CALM 0 0 0 0 1012.8 - 0.0
01/01:30am 17.3 19.3 15.9 91 0.8 CALM 0 0 0 0 1013.3 - 0.0
01/01:00am 17.4 18.2 15.9 91 0.9 ENE 6 7 3 4 1013.5 - 0.0
01/12:30am 17.1 18.3 15.9 93 0.7 NE 4 7 2 4 1013.7 - 0.0
01/12:00am 17.5 19.5 16.0 91 0.9 CALM 0 0 0 0 1013.9 1013.9 0.0
 
Date/Time
EDT
Temp
°C
App
Temp
°C
Dew
Point
°C
Rel
Hum
%
Delta-T
°C
Wind Press
QNH
hPa
Press
MSL
hPa
Rain since
9am
mm
Dir  Spd
km/h
Gust
km/h
Spd
kts
Gust
kts
30/11:30pm 18.0 20.0 16.1 89 1.1 CALM 0 0 0 0 1014.1 - 0.0
30/11:00pm 18.4 19.3 16.0 86 1.4 ENE 6 7 3 4 1014.0 - 0.0
30/10:30pm 18.7 20.7 16.0 84 1.6 CALM 0 0 0 0 1014.1 - 0.0
30/10:00pm 18.6 20.6 15.9 84 1.6 CALM 0 0 0 0 1014.1 - 0.0
30/09:30pm 19.1 21.1 16.1 83 1.8 CALM 0 0 0 0 1013.9 - 0.0
30/09:00pm 20.7 21.8 16.6 77 2.5 N 6 11 3 6 1014.1 1014.1 0.0
30/08:30pm 21.2 21.6 16.4 74 2.9 N 9 13 5 7 1013.7 - 0.0
30/08:00pm 20.9 21.6 16.1 74 2.9 N 7 11 4 6 1013.1 - 0.0
30/07:30pm 20.9 21.3 16.2 74 2.8 NNE 9 13 5 7 1012.6 - 0.0
30/07:00pm 21.2 21.8 16.9 76 2.6 NNE 9 15 5 8 1012.5 - 0.0
30/06:30pm 21.5 22.3 17.3 77 2.6 NNE 9 13 5 7 1012.4 - 0.0
30/06:00pm 22.1 22.8 17.0 73 3.1 N 9 15 5 8 1012.4 1012.4 0.0
30/05:30pm 22.2 23.0 17.3 74 3.0 NNE 9 15 5 8 1012.1 - 0.0
30/05:00pm 22.1 22.0 17.0 73 3.1 NE 13 17 7 9 1012.1 - 0.0
30/04:30pm 22.3 22.3 17.3 73 3.1 NNE 13 19 7 10 1012.0 - 0.0
30/04:00pm 22.6 23.4 17.2 71 3.3 NNW 9 11 5 6 1012.2 - 0.0

Other Formats:

Comma delimited format used in spreadsheet applications
http://www.bom.gov.au/fwo/IDN60801/IDN60801.94995.axf

JavaScript Object Notation format (JSON) in row-major order
http://www.bom.gov.au/fwo/IDN60801/IDN60801.94995.json